sensor_id;sensor_type;location;lat;lon;timestamp;temperature;humidity
1602;DHT22;794;48.592;9.634;2022-08-03T00:01:24;13.80;1.00
1602;DHT22;794;48.592;9.634;2022-08-03T00:06:20;16.00;1.00
1602;DHT22;794;48.592;9.634;2022-08-03T00:08:47;16.50;1.00
1602;DHT22;794;48.592;9.634;2022-08-03T00:11:14;16.20;1.00
1602;DHT22;794;48.592;9.634;2022-08-03T00:13:41;16.50;1.00
1602;DHT22;794;48.592;9.634;2022-08-03T00:16:08;16.30;1.00
1602;DHT22;794;48.592;9.634;2022-08-03T00:18:36;16.00;1.00
1602;DHT22;794;48.592;9.634;2022-08-03T00:21:03;16.00;1.00
1602;DHT22;794;48.592;9.634;2022-08-03T00:23:33;16.20;1.00
1602;DHT22;794;48.592;9.634;2022-08-03T00:26:00;15.90;1.00
1602;DHT22;794;48.592;9.634;2022-08-03T00:28:28;15.90;1.00
1602;DHT22;794;48.592;9.634;2022-08-03T00:30:55;16.00;1.00
1602;DHT22;794;48.592;9.634;2022-08-03T00:33:22;16.30;1.00
1602;DHT22;794;48.592;9.634;2022-08-03T00:35:50;16.40;1.00
1602;DHT22;794;48.592;9.634;2022-08-03T00:38:18;16.10;1.00
1602;DHT22;794;48.592;9.634;2022-08-03T00:40:46;15.90;1.00
1602;DHT22;794;48.592;9.634;2022-08-03T00:43:13;15.90;1.00
1602;DHT22;794;48.592;9.634;2022-08-03T00:45:41;15.90;1.00
1602;DHT22;794;48.592;9.634;2022-08-03T00:48:11;15.90;1.00
1602;DHT22;794;48.592;9.634;2022-08-03T00:50:40;15.90;1.00
1602;DHT22;794;48.592;9.634;2022-08-03T00:53:10;16.00;1.00
1602;DHT22;794;48.592;9.634;2022-08-03T00:55:38;15.90;1.00
1602;DHT22;794;48.592;9.634;2022-08-03T00:58:07;15.90;1.00
1602;DHT22;794;48.592;9.634;2022-08-03T01:00:37;15.90;1.00
1602;DHT22;794;48.592;9.634;2022-08-03T01:03:05;15.70;1.00
1602;DHT22;794;48.592;9.634;2022-08-03T01:05:39;16.00;1.00
1602;DHT22;794;48.592;9.634;2022-08-03T01:08:11;16.00;1.00
1602;DHT22;794;48.592;9.634;2022-08-03T01:10:46;15.80;1.00
1602;DHT22;794;48.592;9.634;2022-08-03T01:13:22;15.80;1.00
1602;DHT22;794;48.592;9.634;2022-08-03T01:15:58;16.00;1.00
1602;DHT22;794;48.592;9.634;2022-08-03T01:18:37;15.80;1.00
1602;DHT22;794;48.592;9.634;2022-08-03T01:21:09;15.80;1.00
1602;DHT22;794;48.592;9.634;2022-08-03T01:23:55;15.80;1.00
1602;DHT22;794;48.592;9.634;2022-08-03T01:26:37;15.70;1.00
1602;DHT22;794;48.592;9.634;2022-08-03T01:29:28;15.80;1.00
1602;DHT22;794;48.592;9.634;2022-08-03T01:31:58;15.70;1.00
1602;DHT22;794;48.592;9.634;2022-08-03T01:34:30;15.70;1.00
1602;DHT22;794;48.592;9.634;2022-08-03T01:36:58;15.80;1.00
1602;DHT22;794;48.592;9.634;2022-08-03T01:39:28;15.60;1.00
1602;DHT22;794;48.592;9.634;2022-08-03T01:42:00;15.70;1.00
1602;DHT22;794;48.592;9.634;2022-08-03T01:44:36;15.60;1.00
1602;DHT22;794;48.592;9.634;2022-08-03T01:47:04;15.60;1.00
1602;DHT22;794;48.592;9.634;2022-08-03T01:49:36;15.50;1.00
1602;DHT22;794;48.592;9.634;2022-08-03T01:52:05;15.50;1.00
1602;DHT22;794;48.592;9.634;2022-08-03T01:54:35;15.80;1.00
1602;DHT22;794;48.592;9.634;2022-08-03T01:57:04;15.60;1.00
1602;DHT22;794;48.592;9.634;2022-08-03T01:59:34;15.60;1.00
1602;DHT22;794;48.592;9.634;2022-08-03T02:02:02;15.70;1.00
1602;DHT22;794;48.592;9.634;2022-08-03T02:04:30;15.50;1.00
1602;DHT22;794;48.592;9.634;2022-08-03T02:06:58;15.80;1.00
1602;DHT22;794;48.592;9.634;2022-08-03T02:09:26;15.50;1.00
1602;DHT22;794;48.592;9.634;2022-08-03T02:11:55;15.20;1.00
1602;DHT22;794;48.592;9.634;2022-08-03T02:14:23;15.50;1.00
1602;DHT22;794;48.592;9.634;2022-08-03T02:16:54;16.00;1.00
1602;DHT22;794;48.592;9.634;2022-08-03T02:19:24;15.50;1.00
1602;DHT22;794;48.592;9.634;2022-08-03T02:21:52;15.50;1.00
1602;DHT22;794;48.592;9.634;2022-08-03T02:24:19;15.50;1.00
1602;DHT22;794;48.592;9.634;2022-08-03T02:26:48;15.40;1.00
1602;DHT22;794;48.592;9.634;2022-08-03T02:29:20;15.40;1.00
1602;DHT22;794;48.592;9.634;2022-08-03T02:31:48;15.50;1.00
1602;DHT22;794;48.592;9.634;2022-08-03T02:34:20;15.10;1.00
1602;DHT22;794;48.592;9.634;2022-08-03T02:36:51;15.70;1.00
1602;DHT22;794;48.592;9.634;2022-08-03T02:39:21;15.30;1.00
1602;DHT22;794;48.592;9.634;2022-08-03T02:41:51;15.20;1.00
1602;DHT22;794;48.592;9.634;2022-08-03T02:44:24;15.40;1.00
1602;DHT22;794;48.592;9.634;2022-08-03T02:46:54;15.70;1.00
1602;DHT22;794;48.592;9.634;2022-08-03T02:49:25;15.30;1.00
1602;DHT22;794;48.592;9.634;2022-08-03T02:51:54;15.40;1.00
1602;DHT22;794;48.592;9.634;2022-08-03T02:54:23;15.30;1.00
1602;DHT22;794;48.592;9.634;2022-08-03T02:56:53;15.30;1.00
1602;DHT22;794;48.592;9.634;2022-08-03T02:59:22;15.60;1.00
1602;DHT22;794;48.592;9.634;2022-08-03T03:01:50;15.20;1.00
1602;DHT22;794;48.592;9.634;2022-08-03T03:04:20;15.50;1.00
1602;DHT22;794;48.592;9.634;2022-08-03T03:06:49;15.40;1.00
1602;DHT22;794;48.592;9.634;2022-08-03T03:09:18;13.90;1.00
1602;DHT22;794;48.592;9.634;2022-08-03T03:14:14;14.10;1.00
1602;DHT22;794;48.592;9.634;2022-08-03T03:16:42;15.20;1.00
1602;DHT22;794;48.592;9.634;2022-08-03T03:19:13;15.10;1.00
1602;DHT22;794;48.592;9.634;2022-08-03T03:21:41;15.20;1.00
1602;DHT22;794;48.592;9.634;2022-08-03T03:24:10;15.10;1.00
1602;DHT22;794;48.592;9.634;2022-08-03T03:26:38;15.90;1.00
1602;DHT22;794;48.592;9.634;2022-08-03T03:29:06;14.90;1.00
1602;DHT22;794;48.592;9.634;2022-08-03T03:31:34;15.20;1.00
1602;DHT22;794;48.592;9.634;2022-08-03T03:34:02;15.30;1.00
1602;DHT22;794;48.592;9.634;2022-08-03T03:36:29;15.00;1.00
1602;DHT22;794;48.592;9.634;2022-08-03T03:41:25;15.00;1.00
1602;DHT22;794;48.592;9.634;2022-08-03T03:43:53;15.00;1.00
1602;DHT22;794;48.592;9.634;2022-08-03T03:46:21;15.10;1.00
1602;DHT22;794;48.592;9.634;2022-08-03T03:48:49;15.00;1.00
1602;DHT22;794;48.592;9.634;2022-08-03T03:51:16;15.10;1.00
1602;DHT22;794;48.592;9.634;2022-08-03T03:53:55;14.60;1.00
1602;DHT22;794;48.592;9.634;2022-08-03T03:56:22;15.10;1.00
1602;DHT22;794;48.592;9.634;2022-08-03T03:58:52;15.20;1.00
1602;DHT22;794;48.592;9.634;2022-08-03T04:01:19;15.50;1.00
1602;DHT22;794;48.592;9.634;2022-08-03T04:03:47;15.00;1.00
1602;DHT22;794;48.592;9.634;2022-08-03T04:06:14;14.60;1.00
1602;DHT22;794;48.592;9.634;2022-08-03T04:08:59;15.20;1.00
1602;DHT22;794;48.592;9.634;2022-08-03T04:11:48;15.00;1.00
1602;DHT22;794;48.592;9.634;2022-08-03T04:14:21;14.90;1.00
1602;DHT22;794;48.592;9.634;2022-08-03T04:16:53;15.10;1.00
1602;DHT22;794;48.592;9.634;2022-08-03T04:19:27;14.90;1.00
1602;DHT22;794;48.592;9.634;2022-08-03T04:22:01;15.10;1.00
1602;DHT22;794;48.592;9.634;2022-08-03T04:24:33;15.30;1.00
1602;DHT22;794;48.592;9.634;2022-08-03T04:27:05;15.20;1.00
1602;DHT22;794;48.592;9.634;2022-08-03T04:29:35;15.00;1.00
1602;DHT22;794;48.592;9.634;2022-08-03T04:32:04;15.20;1.00
1602;DHT22;794;48.592;9.634;2022-08-03T04:34:46;15.20;1.00
1602;DHT22;794;48.592;9.634;2022-08-03T04:37:29;15.30;1.00
1602;DHT22;794;48.592;9.634;2022-08-03T04:40:02;15.30;1.00
1602;DHT22;794;48.592;9.634;2022-08-03T04:42:32;15.10;1.00
1602;DHT22;794;48.592;9.634;2022-08-03T04:45:03;15.50;1.00
1602;DHT22;794;48.592;9.634;2022-08-03T04:47:33;15.40;1.00
1602;DHT22;794;48.592;9.634;2022-08-03T04:50:09;15.70;1.00
1602;DHT22;794;48.592;9.634;2022-08-03T04:52:39;16.00;1.00
1602;DHT22;794;48.592;9.634;2022-08-03T04:55:07;15.70;1.00
1602;DHT22;794;48.592;9.634;2022-08-03T04:57:34;15.80;1.00
1602;DHT22;794;48.592;9.634;2022-08-03T05:00:07;15.70;1.00
1602;DHT22;794;48.592;9.634;2022-08-03T05:02:34;18.80;1.00
1602;DHT22;794;48.592;9.634;2022-08-03T05:05:03;15.90;1.00
1602;DHT22;794;48.592;9.634;2022-08-03T05:07:33;15.90;1.00
1602;DHT22;794;48.592;9.634;2022-08-03T05:10:10;16.40;1.00
1602;DHT22;794;48.592;9.634;2022-08-03T05:12:39;16.30;1.00
1602;DHT22;794;48.592;9.634;2022-08-03T05:15:09;16.30;1.00
1602;DHT22;794;48.592;9.634;2022-08-03T05:17:38;16.40;1.00
1602;DHT22;794;48.592;9.634;2022-08-03T05:20:07;16.80;1.00
1602;DHT22;794;48.592;9.634;2022-08-03T05:22:37;16.70;1.00
1602;DHT22;794;48.592;9.634;2022-08-03T05:25:04;16.90;1.00
1602;DHT22;794;48.592;9.634;2022-08-03T05:27:32;17.60;1.00
1602;DHT22;794;48.592;9.634;2022-08-03T05:30:18;14.80;1.00
1602;DHT22;794;48.592;9.634;2022-08-03T05:32:47;17.30;1.00
1602;DHT22;794;48.592;9.634;2022-08-03T05:35:19;17.20;1.00
1602;DHT22;794;48.592;9.634;2022-08-03T05:37:50;16.60;1.00
1602;DHT22;794;48.592;9.634;2022-08-03T05:40:17;18.00;1.00
1602;DHT22;794;48.592;9.634;2022-08-03T05:42:45;17.80;1.00
1602;DHT22;794;48.592;9.634;2022-08-03T05:45:14;17.90;1.00
1602;DHT22;794;48.592;9.634;2022-08-03T05:47:43;18.00;1.00
1602;DHT22;794;48.592;9.634;2022-08-03T05:50:10;16.20;1.00
1602;DHT22;794;48.592;9.634;2022-08-03T05:52:38;18.30;1.00
1602;DHT22;794;48.592;9.634;2022-08-03T05:55:06;18.90;1.00
1602;DHT22;794;48.592;9.634;2022-08-03T05:57:34;17.40;1.00
1602;DHT22;794;48.592;9.634;2022-08-03T06:00:03;18.60;1.00
1602;DHT22;794;48.592;9.634;2022-08-03T06:02:35;18.60;1.00
1602;DHT22;794;48.592;9.634;2022-08-03T06:05:03;18.80;1.00
1602;DHT22;794;48.592;9.634;2022-08-03T06:07:33;18.90;1.00
1602;DHT22;794;48.592;9.634;2022-08-03T06:10:04;19.20;1.00
1602;DHT22;794;48.592;9.634;2022-08-03T06:12:31;19.10;1.00
1602;DHT22;794;48.592;9.634;2022-08-03T06:15:00;19.50;1.00
1602;DHT22;794;48.592;9.634;2022-08-03T06:17:43;20.00;1.00
1602;DHT22;794;48.592;9.634;2022-08-03T06:20:14;19.60;1.00
1602;DHT22;794;48.592;9.634;2022-08-03T06:22:42;19.70;1.00
1602;DHT22;794;48.592;9.634;2022-08-03T06:25:10;20.00;1.00
1602;DHT22;794;48.592;9.634;2022-08-03T06:27:48;20.30;1.00
1602;DHT22;794;48.592;9.634;2022-08-03T06:30:17;20.20;1.00
1602;DHT22;794;48.592;9.634;2022-08-03T06:32:57;20.40;1.00
1602;DHT22;794;48.592;9.634;2022-08-03T06:35:26;20.80;1.00
1602;DHT22;794;48.592;9.634;2022-08-03T06:37:54;21.40;1.00
1602;DHT22;794;48.592;9.634;2022-08-03T06:40:23;23.50;1.00
1602;DHT22;794;48.592;9.634;2022-08-03T06:42:54;27.30;1.00
1602;DHT22;794;48.592;9.634;2022-08-03T06:45:21;31.00;1.00
1602;DHT22;794;48.592;9.634;2022-08-03T06:47:59;33.80;1.00
1602;DHT22;794;48.592;9.634;2022-08-03T06:50:28;35.70;1.00
1602;DHT22;794;48.592;9.634;2022-08-03T06:52:55;37.50;1.00
1602;DHT22;794;48.592;9.634;2022-08-03T07:00:17;40.60;1.00
1602;DHT22;794;48.592;9.634;2022-08-03T07:02:45;39.10;1.00
1602;DHT22;794;48.592;9.634;2022-08-03T07:05:14;37.80;1.00
1602;DHT22;794;48.592;9.634;2022-08-03T07:07:43;36.30;1.00
1602;DHT22;794;48.592;9.634;2022-08-03T07:10:11;34.50;1.00
1602;DHT22;794;48.592;9.634;2022-08-03T07:12:38;35.40;1.00
1602;DHT22;794;48.592;9.634;2022-08-03T07:15:07;35.30;1.00
1602;DHT22;794;48.592;9.634;2022-08-03T07:17:34;35.10;1.00
1602;DHT22;794;48.592;9.634;2022-08-03T07:20:05;33.50;1.00
1602;DHT22;794;48.592;9.634;2022-08-03T07:22:34;32.70;1.00
1602;DHT22;794;48.592;9.634;2022-08-03T07:25:05;33.10;1.00
1602;DHT22;794;48.592;9.634;2022-08-03T07:27:33;32.30;1.00
1602;DHT22;794;48.592;9.634;2022-08-03T07:30:04;32.60;1.00
1602;DHT22;794;48.592;9.634;2022-08-03T07:32:34;34.50;1.00
1602;DHT22;794;48.592;9.634;2022-08-03T07:35:05;34.90;1.00
1602;DHT22;794;48.592;9.634;2022-08-03T07:37:34;35.50;1.00
1602;DHT22;794;48.592;9.634;2022-08-03T07:40:04;38.20;1.00
1602;DHT22;794;48.592;9.634;2022-08-03T07:42:32;38.00;1.00
1602;DHT22;794;48.592;9.634;2022-08-03T07:44:59;35.50;1.00
1602;DHT22;794;48.592;9.634;2022-08-03T07:47:29;35.80;1.00
1602;DHT22;794;48.592;9.634;2022-08-03T07:49:59;34.80;1.00
1602;DHT22;794;48.592;9.634;2022-08-03T07:52:29;35.50;1.00
1602;DHT22;794;48.592;9.634;2022-08-03T07:55:16;31.60;1.00
1602;DHT22;794;48.592;9.634;2022-08-03T08:00:15;33.50;1.00
1602;DHT22;794;48.592;9.634;2022-08-03T08:02:43;34.50;1.00
1602;DHT22;794;48.592;9.634;2022-08-03T08:05:13;33.70;1.00
1602;DHT22;794;48.592;9.634;2022-08-03T08:07:43;34.00;1.00
1602;DHT22;794;48.592;9.634;2022-08-03T08:10:10;33.80;1.00
1602;DHT22;794;48.592;9.634;2022-08-03T08:12:39;34.10;1.00
1602;DHT22;794;48.592;9.634;2022-08-03T08:15:07;36.10;1.00
1602;DHT22;794;48.592;9.634;2022-08-03T08:17:41;38.20;1.00
1602;DHT22;794;48.592;9.634;2022-08-03T08:20:10;38.70;1.00
1602;DHT22;794;48.592;9.634;2022-08-03T08:22:37;38.80;1.00
1602;DHT22;794;48.592;9.634;2022-08-03T08:27:42;41.80;1.00
1602;DHT22;794;48.592;9.634;2022-08-03T08:30:12;43.60;1.00
1602;DHT22;794;48.592;9.634;2022-08-03T08:35:09;43.00;1.00
1602;DHT22;794;48.592;9.634;2022-08-03T08:40:08;36.90;1.00
1602;DHT22;794;48.592;9.634;2022-08-03T08:45:07;38.80;1.00
1602;DHT22;794;48.592;9.634;2022-08-03T08:47:39;41.90;1.00
1602;DHT22;794;48.592;9.634;2022-08-03T08:50:08;40.50;1.00
1602;DHT22;794;48.592;9.634;2022-08-03T08:52:38;39.20;1.00
1602;DHT22;794;48.592;9.634;2022-08-03T08:55:12;37.40;1.00
1602;DHT22;794;48.592;9.634;2022-08-03T08:57:46;40.00;1.00
1602;DHT22;794;48.592;9.634;2022-08-03T09:00:18;40.20;1.00
1602;DHT22;794;48.592;9.634;2022-08-03T09:02:45;41.40;1.00
1602;DHT22;794;48.592;9.634;2022-08-03T09:05:13;43.00;1.00
1602;DHT22;794;48.592;9.634;2022-08-03T09:10:11;44.00;1.00
1602;DHT22;794;48.592;9.634;2022-08-03T09:15:21;40.00;1.00
1602;DHT22;794;48.592;9.634;2022-08-03T09:17:50;37.80;1.00
1602;DHT22;794;48.592;9.634;2022-08-03T09:20:19;39.00;1.00
1602;DHT22;794;48.592;9.634;2022-08-03T09:22:55;39.10;1.00
1602;DHT22;794;48.592;9.634;2022-08-03T09:25:28;35.20;1.00
1602;DHT22;794;48.592;9.634;2022-08-03T09:28:04;37.50;1.00
1602;DHT22;794;48.592;9.634;2022-08-03T09:30:35;37.90;1.00
1602;DHT22;794;48.592;9.634;2022-08-03T09:33:03;38.40;1.00
1602;DHT22;794;48.592;9.634;2022-08-03T09:35:31;39.50;1.00
1602;DHT22;794;48.592;9.634;2022-08-03T09:38:13;40.20;1.00
1602;DHT22;794;48.592;9.634;2022-08-03T09:40:41;38.80;1.00
1602;DHT22;794;48.592;9.634;2022-08-03T09:43:09;37.80;1.00
1602;DHT22;794;48.592;9.634;2022-08-03T09:45:38;39.20;1.00
1602;DHT22;794;48.592;9.634;2022-08-03T09:48:20;38.70;1.00
1602;DHT22;794;48.592;9.634;2022-08-03T09:50:48;36.70;1.00
1602;DHT22;794;48.592;9.634;2022-08-03T09:53:18;35.40;1.00
1602;DHT22;794;48.592;9.634;2022-08-03T09:55:53;35.70;1.00
1602;DHT22;794;48.592;9.634;2022-08-03T09:58:25;37.30;1.00
1602;DHT22;794;48.592;9.634;2022-08-03T10:00:56;36.20;1.00
1602;DHT22;794;48.592;9.634;2022-08-03T10:03:26;37.80;1.00
1602;DHT22;794;48.592;9.634;2022-08-03T10:08:24;36.80;1.00
1602;DHT22;794;48.592;9.634;2022-08-03T10:10:52;36.30;1.00
1602;DHT22;794;48.592;9.634;2022-08-03T10:18:19;37.60;1.00
1602;DHT22;794;48.592;9.634;2022-08-03T10:20:51;38.30;1.00
1602;DHT22;794;48.592;9.634;2022-08-03T10:25:50;39.40;1.00
1602;DHT22;794;48.592;9.634;2022-08-03T10:30:52;38.30;1.00
1602;DHT22;794;48.592;9.634;2022-08-03T10:33:25;36.00;1.00
1602;DHT22;794;48.592;9.634;2022-08-03T10:35:58;36.10;1.00
1602;DHT22;794;48.592;9.634;2022-08-03T10:38:31;35.90;1.00
1602;DHT22;794;48.592;9.634;2022-08-03T10:41:00;35.30;1.00
1602;DHT22;794;48.592;9.634;2022-08-03T10:43:44;34.70;1.00
1602;DHT22;794;48.592;9.634;2022-08-03T10:46:15;32.50;1.00
1602;DHT22;794;48.592;9.634;2022-08-03T10:48:44;30.90;1.00
1602;DHT22;794;48.592;9.634;2022-08-03T10:51:12;31.00;1.00
1602;DHT22;794;48.592;9.634;2022-08-03T10:53:40;30.80;1.00
1602;DHT22;794;48.592;9.634;2022-08-03T10:56:37;30.90;1.00
1602;DHT22;794;48.592;9.634;2022-08-03T10:59:56;31.20;1.00
1602;DHT22;794;48.592;9.634;2022-08-03T11:05:33;31.40;1.00
1602;DHT22;794;48.592;9.634;2022-08-03T11:08:24;31.10;1.00
1602;DHT22;794;48.592;9.634;2022-08-03T11:10:54;31.10;1.00
1602;DHT22;794;48.592;9.634;2022-08-03T11:13:22;31.20;1.00
1602;DHT22;794;48.592;9.634;2022-08-03T11:15:51;31.10;1.00
1602;DHT22;794;48.592;9.634;2022-08-03T11:18:19;31.00;1.00
1602;DHT22;794;48.592;9.634;2022-08-03T11:20:49;29.80;1.00
1602;DHT22;794;48.592;9.634;2022-08-03T11:23:19;29.80;1.00
1602;DHT22;794;48.592;9.634;2022-08-03T11:26:08;30.20;1.00
1602;DHT22;794;48.592;9.634;2022-08-03T11:28:36;30.70;1.00
1602;DHT22;794;48.592;9.634;2022-08-03T11:31:45;31.00;1.00
1602;DHT22;794;48.592;9.634;2022-08-03T11:34:14;31.30;1.00
1602;DHT22;794;48.592;9.634;2022-08-03T11:39:44;31.10;1.00
1602;DHT22;794;48.592;9.634;2022-08-03T11:42:40;30.90;1.00
1602;DHT22;794;48.592;9.634;2022-08-03T11:45:10;30.00;1.00
1602;DHT22;794;48.592;9.634;2022-08-03T11:47:40;29.90;1.00
1602;DHT22;794;48.592;9.634;2022-08-03T11:50:09;29.90;1.00
1602;DHT22;794;48.592;9.634;2022-08-03T11:52:39;30.10;1.00
1602;DHT22;794;48.592;9.634;2022-08-03T11:55:16;30.00;1.00
1602;DHT22;794;48.592;9.634;2022-08-03T11:57:45;29.50;1.00
1602;DHT22;794;48.592;9.634;2022-08-03T12:00:23;29.40;1.00
1602;DHT22;794;48.592;9.634;2022-08-03T12:03:05;29.70;1.00
1602;DHT22;794;48.592;9.634;2022-08-03T12:05:37;29.90;1.00
1602;DHT22;794;48.592;9.634;2022-08-03T12:08:05;30.10;1.00
1602;DHT22;794;48.592;9.634;2022-08-03T12:10:33;29.90;1.00
1602;DHT22;794;48.592;9.634;2022-08-03T12:13:02;30.10;1.00
1602;DHT22;794;48.592;9.634;2022-08-03T12:15:32;30.30;1.00
1602;DHT22;794;48.592;9.634;2022-08-03T12:18:00;30.10;1.00
1602;DHT22;794;48.592;9.634;2022-08-03T12:20:29;30.30;1.00
1602;DHT22;794;48.592;9.634;2022-08-03T12:23:02;30.40;1.00
1602;DHT22;794;48.592;9.634;2022-08-03T12:25:30;30.40;1.00
1602;DHT22;794;48.592;9.634;2022-08-03T12:28:08;30.40;1.00
1602;DHT22;794;48.592;9.634;2022-08-03T12:30:36;30.40;1.00
1602;DHT22;794;48.592;9.634;2022-08-03T12:33:13;30.00;1.00
1602;DHT22;794;48.592;9.634;2022-08-03T12:38:09;29.90;1.00
1602;DHT22;794;48.592;9.634;2022-08-03T12:40:37;30.00;1.00
1602;DHT22;794;48.592;9.634;2022-08-03T12:43:11;30.00;1.00
1602;DHT22;794;48.592;9.634;2022-08-03T12:45:38;29.50;1.00
1602;DHT22;794;48.592;9.634;2022-08-03T12:48:08;29.60;1.00
1602;DHT22;794;48.592;9.634;2022-08-03T12:50:36;29.90;1.00
1602;DHT22;794;48.592;9.634;2022-08-03T12:53:08;29.70;1.00
1602;DHT22;794;48.592;9.634;2022-08-03T12:55:36;29.50;1.00
1602;DHT22;794;48.592;9.634;2022-08-03T12:58:05;29.60;1.00
1602;DHT22;794;48.592;9.634;2022-08-03T13:00:34;29.80;1.00
1602;DHT22;794;48.592;9.634;2022-08-03T13:03:02;29.70;1.00
1602;DHT22;794;48.592;9.634;2022-08-03T13:05:30;32.80;1.00
1602;DHT22;794;48.592;9.634;2022-08-03T13:07:57;29.50;1.00
1602;DHT22;794;48.592;9.634;2022-08-03T13:10:29;29.70;1.00
1602;DHT22;794;48.592;9.634;2022-08-03T13:12:56;29.70;1.00
1602;DHT22;794;48.592;9.634;2022-08-03T13:15:25;29.60;1.00
1602;DHT22;794;48.592;9.634;2022-08-03T13:17:54;29.40;1.00
1602;DHT22;794;48.592;9.634;2022-08-03T13:20:21;29.30;1.00
1602;DHT22;794;48.592;9.634;2022-08-03T13:22:48;29.50;1.00
1602;DHT22;794;48.592;9.634;2022-08-03T13:25:15;29.60;1.00
1602;DHT22;794;48.592;9.634;2022-08-03T13:27:42;29.60;1.00
1602;DHT22;794;48.592;9.634;2022-08-03T13:30:10;29.70;1.00
1602;DHT22;794;48.592;9.634;2022-08-03T13:32:37;29.90;1.00
1602;DHT22;794;48.592;9.634;2022-08-03T13:35:07;29.80;1.00
1602;DHT22;794;48.592;9.634;2022-08-03T13:37:34;29.60;1.00
1602;DHT22;794;48.592;9.634;2022-08-03T13:40:04;29.40;1.00
1602;DHT22;794;48.592;9.634;2022-08-03T13:42:32;29.40;1.00
1602;DHT22;794;48.592;9.634;2022-08-03T13:45:00;29.50;1.00
1602;DHT22;794;48.592;9.634;2022-08-03T13:47:28;29.50;1.00
1602;DHT22;794;48.592;9.634;2022-08-03T13:49:55;29.30;1.00
1602;DHT22;794;48.592;9.634;2022-08-03T13:52:23;29.40;1.00
1602;DHT22;794;48.592;9.634;2022-08-03T13:54:50;29.50;1.00
1602;DHT22;794;48.592;9.634;2022-08-03T13:57:17;29.50;1.00
1602;DHT22;794;48.592;9.634;2022-08-03T13:59:44;29.60;1.00
1602;DHT22;794;48.592;9.634;2022-08-03T14:02:10;29.70;1.00
1602;DHT22;794;48.592;9.634;2022-08-03T14:04:37;29.80;1.00
1602;DHT22;794;48.592;9.634;2022-08-03T14:07:04;29.90;1.00
1602;DHT22;794;48.592;9.634;2022-08-03T14:09:33;29.90;1.00
1602;DHT22;794;48.592;9.634;2022-08-03T14:19:21;30.00;1.00
1602;DHT22;794;48.592;9.634;2022-08-03T14:21:48;29.80;1.00
1602;DHT22;794;48.592;9.634;2022-08-03T14:24:15;29.80;1.00
1602;DHT22;794;48.592;9.634;2022-08-03T14:26:43;29.80;1.00
1602;DHT22;794;48.592;9.634;2022-08-03T14:31:37;29.80;1.00
1602;DHT22;794;48.592;9.634;2022-08-03T14:34:04;29.50;1.00
1602;DHT22;794;48.592;9.634;2022-08-03T14:36:31;29.60;1.00
1602;DHT22;794;48.592;9.634;2022-08-03T14:38:58;29.70;1.00
1602;DHT22;794;48.592;9.634;2022-08-03T14:41:25;29.70;1.00
1602;DHT22;794;48.592;9.634;2022-08-03T14:43:53;29.60;1.00
1602;DHT22;794;48.592;9.634;2022-08-03T14:46:21;29.60;1.00
1602;DHT22;794;48.592;9.634;2022-08-03T14:48:48;29.80;1.00
1602;DHT22;794;48.592;9.634;2022-08-03T14:51:14;29.80;1.00
1602;DHT22;794;48.592;9.634;2022-08-03T14:53:41;29.70;1.00
1602;DHT22;794;48.592;9.634;2022-08-03T14:56:08;29.80;1.00
1602;DHT22;794;48.592;9.634;2022-08-03T14:58:35;29.90;1.00
1602;DHT22;794;48.592;9.634;2022-08-03T15:01:03;30.00;1.00
1602;DHT22;794;48.592;9.634;2022-08-03T15:08:26;29.80;1.00
1602;DHT22;794;48.592;9.634;2022-08-03T15:10:53;29.70;1.00
1602;DHT22;794;48.592;9.634;2022-08-03T15:13:21;29.70;1.00
1602;DHT22;794;48.592;9.634;2022-08-03T15:15:49;29.70;1.00
1602;DHT22;794;48.592;9.634;2022-08-03T15:18:18;29.80;1.00
1602;DHT22;794;48.592;9.634;2022-08-03T15:20:46;29.90;1.00
1602;DHT22;794;48.592;9.634;2022-08-03T15:23:14;30.00;1.00
1602;DHT22;794;48.592;9.634;2022-08-03T15:25:42;30.00;1.00
1602;DHT22;794;48.592;9.634;2022-08-03T15:28:09;29.80;1.00
1602;DHT22;794;48.592;9.634;2022-08-03T15:30:35;29.80;1.00
1602;DHT22;794;48.592;9.634;2022-08-03T15:33:03;29.80;1.00
1602;DHT22;794;48.592;9.634;2022-08-03T15:35:31;29.90;1.00
1602;DHT22;794;48.592;9.634;2022-08-03T15:37:58;29.70;1.00
1602;DHT22;794;48.592;9.634;2022-08-03T15:40:25;29.70;1.00
1602;DHT22;794;48.592;9.634;2022-08-03T15:42:52;29.70;1.00
1602;DHT22;794;48.592;9.634;2022-08-03T15:45:43;29.70;1.00
1602;DHT22;794;48.592;9.634;2022-08-03T15:48:10;28.30;1.00
1602;DHT22;794;48.592;9.634;2022-08-03T15:50:38;29.60;1.00
1602;DHT22;794;48.592;9.634;2022-08-03T15:53:05;29.60;1.00
1602;DHT22;794;48.592;9.634;2022-08-03T15:57:59;29.70;1.00
1602;DHT22;794;48.592;9.634;2022-08-03T16:00:26;29.70;1.00
1602;DHT22;794;48.592;9.634;2022-08-03T16:02:55;29.60;1.00
1602;DHT22;794;48.592;9.634;2022-08-03T16:05:22;29.70;1.00
1602;DHT22;794;48.592;9.634;2022-08-03T16:07:50;29.60;1.00
1602;DHT22;794;48.592;9.634;2022-08-03T16:10:19;29.70;1.00
1602;DHT22;794;48.592;9.634;2022-08-03T16:12:46;29.60;1.00
1602;DHT22;794;48.592;9.634;2022-08-03T16:15:14;29.70;1.00
1602;DHT22;794;48.592;9.634;2022-08-03T16:17:41;29.60;1.00
1602;DHT22;794;48.592;9.634;2022-08-03T16:20:10;29.70;1.00
1602;DHT22;794;48.592;9.634;2022-08-03T16:22:42;29.60;1.00
1602;DHT22;794;48.592;9.634;2022-08-03T16:25:11;29.70;1.00
1602;DHT22;794;48.592;9.634;2022-08-03T16:27:39;29.60;1.00
1602;DHT22;794;48.592;9.634;2022-08-03T16:30:07;29.70;1.00
1602;DHT22;794;48.592;9.634;2022-08-03T16:32:34;29.50;1.00
1602;DHT22;794;48.592;9.634;2022-08-03T16:35:03;29.50;1.00
1602;DHT22;794;48.592;9.634;2022-08-03T16:39:57;29.60;1.00
1602;DHT22;794;48.592;9.634;2022-08-03T16:42:25;29.40;1.00
1602;DHT22;794;48.592;9.634;2022-08-03T16:44:52;29.40;1.00
1602;DHT22;794;48.592;9.634;2022-08-03T16:47:19;29.40;1.00
1602;DHT22;794;48.592;9.634;2022-08-03T16:49:46;29.30;1.00
1602;DHT22;794;48.592;9.634;2022-08-03T16:52:13;29.20;1.00
1602;DHT22;794;48.592;9.634;2022-08-03T16:54:40;29.10;1.00
1602;DHT22;794;48.592;9.634;2022-08-03T16:59:35;28.90;1.00
1602;DHT22;794;48.592;9.634;2022-08-03T17:02:03;28.80;1.00
1602;DHT22;794;48.592;9.634;2022-08-03T17:06:59;28.60;1.00
1602;DHT22;794;48.592;9.634;2022-08-03T17:09:27;28.50;1.00
1602;DHT22;794;48.592;9.634;2022-08-03T17:11:56;28.50;1.00
1602;DHT22;794;48.592;9.634;2022-08-03T17:16:52;28.20;1.00
1602;DHT22;794;48.592;9.634;2022-08-03T17:19:22;28.10;1.00
1602;DHT22;794;48.592;9.634;2022-08-03T17:21:56;28.00;1.00
1602;DHT22;794;48.592;9.634;2022-08-03T17:24:29;27.80;1.00
1602;DHT22;794;48.592;9.634;2022-08-03T17:27:00;27.70;1.00
1602;DHT22;794;48.592;9.634;2022-08-03T17:29:28;27.40;1.00
1602;DHT22;794;48.592;9.634;2022-08-03T17:32:02;27.30;1.00
1602;DHT22;794;48.592;9.634;2022-08-03T17:36:57;28.80;1.00
1602;DHT22;794;48.592;9.634;2022-08-03T17:39:24;27.00;1.00
1602;DHT22;794;48.592;9.634;2022-08-03T17:44:20;26.80;1.00
1602;DHT22;794;48.592;9.634;2022-08-03T17:46:47;26.70;1.00
1602;DHT22;794;48.592;9.634;2022-08-03T17:49:20;26.50;1.00
1602;DHT22;794;48.592;9.634;2022-08-03T17:51:54;26.50;1.00
1602;DHT22;794;48.592;9.634;2022-08-03T17:54:24;26.40;1.00
1602;DHT22;794;48.592;9.634;2022-08-03T17:57:01;24.40;1.00
1602;DHT22;794;48.592;9.634;2022-08-03T17:59:33;26.10;1.00
1602;DHT22;794;48.592;9.634;2022-08-03T18:02:06;25.90;1.00
1602;DHT22;794;48.592;9.634;2022-08-03T18:05:05;25.70;1.00
1602;DHT22;794;48.592;9.634;2022-08-03T18:07:38;25.60;1.00
1602;DHT22;794;48.592;9.634;2022-08-03T18:10:06;25.80;1.00
1602;DHT22;794;48.592;9.634;2022-08-03T18:12:43;25.40;1.00
1602;DHT22;794;48.592;9.634;2022-08-03T18:15:23;25.30;1.00
1602;DHT22;794;48.592;9.634;2022-08-03T18:17:51;25.20;1.00